Time;durP1;ratioP1;P1;durP2;ratioP2;P2;SDS_P1;SDS_P2;PMS_P1;PMS_P2;Temp;Humidity;BMP_temperature;BMP_pressure;BME280_temperature;BME280_humidity;BME280_pressure;Samples;Min_cycle;Max_cycle;Signal;HPM_P1;HPM_P2
2022/10/29 00:01:01;;;;;;;10.82;7.25;;;15.90;99.90;;;;;;5034324;28;20214;-89
2022/10/29 00:03:26;;;;;;;8.37;6.30;;;15.90;99.90;;;;;;5038090;28;20198;-88
2022/10/29 00:06:03;;;;;;;11.43;6.07;;;15.80;99.90;;;;;;5027634;28;20197;-88
2022/10/29 00:08:31;;;;;;;7.97;6.20;;;15.90;99.90;;;;;;5042791;28;20290;-87
2022/10/29 00:11:06;;;;;;;13.60;7.00;;;15.90;99.90;;;;;;5038924;28;20226;-86
2022/10/29 00:13:32;;;;;;;10.20;6.63;;;15.80;99.90;;;;;;5049433;28;20339;-87
2022/10/29 00:15:58;;;;;;;15.02;6.70;;;16.00;99.90;;;;;;5035631;28;20211;-87
2022/10/29 00:18:23;;;;;;;8.00;5.75;;;16.00;99.90;;;;;;5031485;28;20682;-88
2022/10/29 00:20:58;;;;;;;9.93;6.15;;;16.00;99.90;;;;;;5024158;28;20188;-89
2022/10/29 00:23:23;;;;;;;10.90;6.70;;;16.00;99.90;;;;;;5040301;28;20568;-89
2022/10/29 00:25:49;;;;;;;12.32;8.35;;;15.90;99.90;;;;;;5036094;28;20184;-90
2022/10/29 00:28:15;;;;;;;7.53;6.55;;;15.80;99.90;;;;;;5033509;28;20204;-89
2022/10/29 00:30:40;;;;;;;12.38;6.47;;;15.90;99.90;;;;;;5033404;28;20188;-90
2022/10/29 00:33:06;;;;;;;9.27;7.07;;;15.90;99.90;;;;;;5036307;28;20201;-88
2022/10/29 00:35:32;;;;;;;10.57;6.57;;;15.90;99.90;;;;;;5033280;28;20589;-89
2022/10/29 00:37:58;;;;;;;8.10;6.68;;;15.90;99.90;;;;;;5033081;28;20225;-89
2022/10/29 00:40:23;;;;;;;8.43;6.13;;;15.90;99.90;;;;;;5030652;28;20185;-88
2022/10/29 00:42:49;;;;;;;8.77;6.40;;;16.00;99.90;;;;;;5028809;28;20212;-89
2022/10/29 00:45:19;;;;;;;12.82;6.68;;;16.00;99.90;;;;;;5035777;28;20552;-89
2022/10/29 00:47:48;;;;;;;8.00;6.05;;;16.00;99.90;;;;;;5037389;28;20667;-88
2022/10/29 00:50:14;;;;;;;7.55;6.68;;;16.00;99.90;;;;;;5040439;28;20209;-87
2022/10/29 00:52:44;;;;;;;8.15;6.53;;;16.00;99.90;;;;;;5034225;28;20259;-88
2022/10/29 00:55:14;;;;;;;11.07;6.60;;;15.90;99.90;;;;;;5032937;28;20219;-89
2022/10/29 00:57:47;;;;;;;11.25;6.28;;;15.90;99.90;;;;;;5035755;28;20213;-89
2022/10/29 01:00:14;;;;;;;10.32;6.32;;;15.80;99.90;;;;;;5032627;28;20209;-89
2022/10/29 01:02:42;;;;;;;12.13;6.47;;;15.80;99.90;;;;;;5032888;28;20750;-89
2022/10/29 01:05:08;;;;;;;7.47;6.20;;;15.70;99.90;;;;;;5028645;28;20281;-89
2022/10/29 01:07:34;;;;;;;8.63;6.65;;;15.70;99.90;;;;;;5033917;28;20175;-88
2022/10/29 01:10:00;;;;;;;9.50;6.43;;;15.80;99.90;;;;;;5039024;28;20769;-88
2022/10/29 01:12:31;;;;;;;9.30;6.30;;;15.80;99.90;;;;;;5020622;28;20271;-88
2022/10/29 01:15:12;;;;;;;8.73;6.85;;;15.80;99.90;;;;;;5054846;28;20190;-88
2022/10/29 01:17:57;;;;;;;8.77;6.63;;;15.80;99.90;;;;;;5063452;28;20180;-88
2022/10/29 01:21:04;;;;;;;8.88;6.55;;;15.80;99.90;;;;;;5064577;28;20160;-88
2022/10/29 01:23:42;;;;;;;9.73;6.72;;;15.80;99.90;;;;;;5054722;28;20183;-88
2022/10/29 01:26:40;;;;;;;8.65;6.60;;;15.80;99.90;;;;;;5032423;28;20243;-89
2022/10/29 01:29:05;;;;;;;8.23;6.65;;;15.80;99.90;;;;;;5024930;28;20220;-88
2022/10/29 01:31:50;;;;;;;8.93;6.40;;;15.80;99.90;;;;;;5043709;28;20186;-88
2022/10/29 01:34:48;;;;;;;9.68;6.20;;;15.70;99.90;;;;;;5044486;28;20195;-89
2022/10/29 01:37:19;;;;;;;10.85;5.97;;;15.70;99.90;;;;;;5047861;28;20306;-88
2022/10/29 01:40:06;;;;;;;10.73;6.85;;;15.70;99.90;;;;;;5044600;28;20250;-88
2022/10/29 01:42:43;;;;;;;8.52;6.25;;;15.70;99.90;;;;;;5043235;28;20188;-88
2022/10/29 01:45:22;;;;;;;8.20;6.00;;;15.50;99.90;;;;;;5028047;28;20201;-88
2022/10/29 01:48:10;;;;;;;11.73;6.65;;;15.50;99.90;;;;;;5026964;28;20183;-88
2022/10/29 01:50:39;;;;;;;8.95;5.80;;;15.50;99.90;;;;;;5029043;28;20194;-89
2022/10/29 01:53:06;;;;;;;8.07;6.32;;;15.60;99.90;;;;;;5036519;28;20588;-88
2022/10/29 01:55:35;;;;;;;8.93;6.27;;;15.40;99.90;;;;;;5026775;28;20261;-88
2022/10/29 01:58:02;;;;;;;8.15;6.03;;;15.50;99.90;;;;;;5027645;28;20199;-88
2022/10/29 02:00:47;;;;;;;9.65;6.63;;;15.50;99.90;;;;;;5032855;28;20183;-88
2022/10/29 02:03:27;;;;;;;12.70;6.22;;;15.40;99.90;;;;;;5034307;28;20309;-87
2022/10/29 02:06:15;;;;;;;7.97;6.38;;;15.50;99.90;;;;;;5051189;28;20166;-89
2022/10/29 02:08:50;;;;;;;9.75;6.05;;;15.40;99.90;;;;;;5049094;28;20277;-88
2022/10/29 02:11:29;;;;;;;8.37;6.83;;;15.20;99.90;;;;;;5048167;28;20208;-89
2022/10/29 02:14:05;;;;;;;12.83;6.70;;;15.30;99.90;;;;;;5047169;28;20213;-88
2022/10/29 02:16:32;;;;;;;10.17;6.00;;;15.20;99.90;;;;;;5048369;28;20196;-87
2022/10/29 02:18:59;;;;;;;10.83;6.47;;;15.10;99.90;;;;;;5046734;28;20251;-89
2022/10/29 02:21:25;;;;;;;9.10;5.93;;;15.10;99.90;;;;;;5048189;28;20270;-87
2022/10/29 02:23:51;;;;;;;9.73;6.33;;;15.10;99.90;;;;;;5048591;28;20237;-88
2022/10/29 02:26:17;;;;;;;8.63;5.80;;;15.10;99.90;;;;;;5047876;28;20186;-88
2022/10/29 02:28:43;;;;;;;7.70;5.70;;;15.00;99.90;;;;;;5047653;28;20209;-88
2022/10/29 02:31:09;;;;;;;9.53;5.90;;;15.10;99.90;;;;;;5047945;28;20191;-87
2022/10/29 02:33:35;;;;;;;9.43;5.87;;;15.20;99.90;;;;;;5048052;28;20229;-88
2022/10/29 02:36:01;;;;;;;6.97;6.13;;;15.10;99.90;;;;;;5040560;28;20196;-87
2022/10/29 02:38:26;;;;;;;10.47;6.10;;;15.20;99.90;;;;;;5026626;28;20250;-89
2022/10/29 02:40:52;;;;;;;9.32;6.07;;;15.10;99.90;;;;;;5026730;28;20219;-88
2022/10/29 02:43:18;;;;;;;9.20;5.60;;;15.10;99.90;;;;;;5039966;28;20196;-89
2022/10/29 02:45:44;;;;;;;6.50;5.80;;;15.10;99.90;;;;;;5031797;28;20186;-89
2022/10/29 02:48:09;;;;;;;8.53;5.60;;;15.00;99.90;;;;;;5026626;28;20199;-87
2022/10/29 02:50:35;;;;;;;8.87;6.00;;;15.00;99.90;;;;;;5042979;28;20182;-88
2022/10/29 02:53:00;;;;;;;9.03;5.87;;;14.90;99.40;;;;;;5028200;28;20211;-88
2022/10/29 02:55:26;;;;;;;8.23;5.73;;;14.70;99.90;;;;;;5034547;28;20276;-89
2022/10/29 02:57:52;;;;;;;10.67;5.50;;;14.80;99.90;;;;;;5025804;28;20192;-90
2022/10/29 03:00:18;;;;;;;10.40;6.40;;;14.80;99.90;;;;;;5049005;28;20234;-91
2022/10/29 03:02:43;;;;;;;7.13;5.50;;;14.80;99.90;;;;;;5055273;28;20656;-88
2022/10/29 03:05:09;;;;;;;10.77;6.37;;;14.80;99.90;;;;;;5039734;28;20196;-88
2022/10/29 03:07:36;;;;;;;6.77;5.37;;;14.50;99.90;;;;;;5049039;28;20176;-86
2022/10/29 03:10:06;;;;;;;7.00;5.60;;;14.60;99.90;;;;;;5049912;28;20184;-86
2022/10/29 03:12:33;;;;;;;8.90;5.70;;;14.60;99.90;;;;;;5037441;28;20187;-86
2022/10/29 03:14:59;;;;;;;6.30;5.70;;;14.60;99.90;;;;;;5039207;28;20182;-88
2022/10/29 03:17:24;;;;;;;10.77;6.00;;;14.60;99.90;;;;;;5034047;28;20197;-88
2022/10/29 03:19:50;;;;;;;12.53;6.63;;;14.60;99.90;;;;;;5029546;28;20216;-88
2022/10/29 03:22:16;;;;;;;11.53;6.20;;;14.60;99.90;;;;;;5038785;28;20183;-87
2022/10/29 03:24:41;;;;;;;11.37;6.10;;;14.50;99.90;;;;;;5036957;28;20193;-88
2022/10/29 03:27:07;;;;;;;7.53;5.67;;;14.60;99.90;;;;;;5046471;28;20181;-87
2022/10/29 03:29:33;;;;;;;7.37;6.20;;;14.50;99.90;;;;;;5023343;28;20216;-88
2022/10/29 03:31:58;;;;;;;10.97;6.57;;;14.50;99.90;;;;;;5044371;28;20258;-89
2022/10/29 03:34:24;;;;;;;7.87;5.43;;;14.50;99.90;;;;;;5034717;28;20224;-89
2022/10/29 03:36:50;;;;;;;8.23;5.97;;;14.50;99.90;;;;;;5034494;28;20185;-87
2022/10/29 03:39:16;;;;;;;8.20;5.53;;;14.60;99.90;;;;;;5040656;28;20320;-88
2022/10/29 03:41:41;;;;;;;10.77;5.67;;;14.50;99.90;;;;;;5040709;28;20199;-88
2022/10/29 03:44:07;;;;;;;10.90;5.87;;;14.50;99.90;;;;;;5035574;28;20668;-89
2022/10/29 03:46:33;;;;;;;6.30;5.50;;;14.50;99.90;;;;;;5031515;28;20771;-89
2022/10/29 03:48:59;;;;;;;7.73;5.50;;;14.50;99.90;;;;;;5036053;28;20209;-88
2022/10/29 03:51:24;;;;;;;9.17;5.87;;;14.50;99.90;;;;;;5041511;28;20186;-89
2022/10/29 03:53:50;;;;;;;8.87;5.70;;;14.30;99.90;;;;;;5034265;28;20200;-88
2022/10/29 03:56:16;;;;;;;12.20;5.67;;;14.30;99.90;;;;;;5038265;28;20377;-88
2022/10/29 03:58:42;;;;;;;8.33;5.70;;;14.30;99.90;;;;;;5034606;28;20300;-88
2022/10/29 04:01:08;;;;;;;9.00;5.67;;;14.20;99.90;;;;;;5019616;28;20178;-88
2022/10/29 04:03:36;;;;;;;9.03;6.13;;;14.10;99.90;;;;;;5043531;28;20179;-88
2022/10/29 04:06:09;;;;;;;6.20;5.60;;;14.20;99.90;;;;;;5039614;28;20543;-88
2022/10/29 04:08:35;;;;;;;10.47;6.03;;;14.20;99.90;;;;;;5045511;28;20215;-87
2022/10/29 04:11:00;;;;;;;14.47;6.20;;;14.10;99.90;;;;;;5017258;28;20197;-88
2022/10/29 04:13:26;;;;;;;9.83;5.70;;;14.10;99.90;;;;;;5036028;28;20198;-86
2022/10/29 04:15:55;;;;;;;11.77;5.73;;;14.00;99.90;;;;;;5036864;28;20201;-88
2022/10/29 04:18:22;;;;;;;9.03;5.40;;;13.90;99.90;;;;;;5028462;28;20214;-88
2022/10/29 04:20:47;;;;;;;8.27;6.13;;;13.80;99.90;;;;;;5025038;28;20182;-88
2022/10/29 04:23:13;;;;;;;8.03;5.30;;;13.80;99.90;;;;;;5026107;28;20661;-89
2022/10/29 04:25:38;;;;;;;7.43;5.30;;;13.90;99.90;;;;;;5033163;28;20757;-86
2022/10/29 04:28:04;;;;;;;8.20;5.07;;;14.00;99.90;;;;;;5037191;28;20227;-89
2022/10/29 04:30:30;;;;;;;8.80;5.43;;;14.00;99.90;;;;;;5027298;28;20186;-89
2022/10/29 04:32:59;;;;;;;7.20;5.60;;;14.10;99.90;;;;;;5025032;28;20187;-89
2022/10/29 04:35:26;;;;;;;6.60;5.13;;;14.20;99.90;;;;;;5030549;28;20235;-88
2022/10/29 04:37:54;;;;;;;9.40;5.30;;;14.20;99.90;;;;;;5028695;28;20217;-89
2022/10/29 04:40:22;;;;;;;7.77;5.67;;;14.10;99.90;;;;;;5031113;28;20207;-88
2022/10/29 04:42:48;;;;;;;6.07;5.47;;;14.20;99.90;;;;;;5039016;28;20228;-89
2022/10/29 04:45:13;;;;;;;6.23;5.63;;;14.30;99.90;;;;;;5032594;28;20568;-88
2022/10/29 04:47:39;;;;;;;9.30;5.30;;;14.20;98.80;;;;;;5028180;28;20198;-89
2022/10/29 04:50:05;;;;;;;11.13;5.80;;;14.10;99.90;;;;;;5027344;28;20312;-89
2022/10/29 04:52:30;;;;;;;7.70;5.30;;;14.10;99.90;;;;;;5026964;28;20627;-88
2022/10/29 04:54:56;;;;;;;8.43;5.30;;;14.10;99.90;;;;;;5039482;28;20295;-89
2022/10/29 04:57:22;;;;;;;8.07;5.03;;;14.10;99.90;;;;;;5025856;28;20292;-89
2022/10/29 04:59:47;;;;;;;10.17;5.57;;;14.10;99.90;;;;;;5063151;28;20212;-88
2022/10/29 05:02:13;;;;;;;6.07;5.30;;;14.10;99.90;;;;;;5064462;28;20769;-88
2022/10/29 05:04:39;;;;;;;7.97;5.00;;;14.00;99.90;;;;;;5063069;28;20180;-88
2022/10/29 05:07:05;;;;;;;7.60;5.27;;;14.10;99.90;;;;;;5053301;28;20212;-89
2022/10/29 05:09:30;;;;;;;6.80;5.50;;;14.10;99.90;;;;;;5043578;28;20205;-89
2022/10/29 05:11:56;;;;;;;11.67;8.23;;;14.10;99.90;;;;;;5027198;28;20248;-89
2022/10/29 05:14:22;;;;;;;10.23;6.73;;;14.20;99.90;;;;;;5044474;28;20270;-89
2022/10/29 05:16:47;;;;;;;8.93;6.00;;;14.20;99.90;;;;;;5044305;28;20952;-89
2022/10/29 05:19:13;;;;;;;11.50;5.27;;;14.10;99.00;;;;;;5043239;28;20219;-89
2022/10/29 05:21:39;;;;;;;14.70;9.40;;;13.90;99.90;;;;;;5023415;28;20214;-88
2022/10/29 05:24:05;;;;;;;8.90;5.90;;;13.80;99.90;;;;;;5044035;28;20195;-89
2022/10/29 05:26:31;;;;;;;6.33;5.47;;;13.80;99.90;;;;;;5044539;28;20550;-88
2022/10/29 05:28:57;;;;;;;9.23;6.80;;;13.70;99.90;;;;;;5043677;28;20209;-88
2022/10/29 05:31:22;;;;;;;8.17;6.47;;;13.60;99.90;;;;;;5044461;28;20179;-89
2022/10/29 05:33:49;;;;;;;6.70;6.00;;;13.50;99.90;;;;;;5042643;28;20612;-88
2022/10/29 05:36:14;;;;;;;7.13;5.60;;;13.60;99.90;;;;;;5043237;28;20184;-89
2022/10/29 05:38:40;;;;;;;6.13;5.53;;;13.60;99.90;;;;;;5042870;28;20257;-87
2022/10/29 05:41:06;;;;;;;8.70;6.23;;;13.70;99.90;;;;;;5044142;28;20182;-88
2022/10/29 05:43:31;;;;;;;9.73;7.63;;;13.70;99.90;;;;;;5044259;28;20219;-87
2022/10/29 05:45:57;;;;;;;7.70;6.50;;;13.70;99.90;;;;;;5043035;28;20198;-89
2022/10/29 05:48:23;;;;;;;6.60;5.97;;;13.70;99.90;;;;;;5039033;28;20247;-89
2022/10/29 05:50:48;;;;;;;9.03;6.30;;;13.80;99.90;;;;;;5047096;28;20194;-87
2022/10/29 05:53:14;;;;;;;6.37;5.30;;;13.70;99.90;;;;;;5050430;28;20234;-88
2022/10/29 05:55:41;;;;;;;8.67;5.80;;;13.70;99.90;;;;;;5037136;28;20241;-87
2022/10/29 05:58:11;;;;;;;6.17;5.10;;;13.70;99.90;;;;;;5023997;28;20203;-87
2022/10/29 06:00:39;;;;;;;9.77;5.93;;;13.80;99.90;;;;;;5041960;28;20186;-87
2022/10/29 06:03:14;;;;;;;8.80;5.80;;;13.80;99.90;;;;;;5045894;28;20179;-88
2022/10/29 06:05:40;;;;;;;8.33;5.73;;;13.70;99.90;;;;;;5052673;28;20162;-90
2022/10/29 06:08:06;;;;;;;9.47;5.87;;;13.70;99.90;;;;;;5053444;28;20189;-86
2022/10/29 06:10:32;;;;;;;10.37;5.33;;;13.80;99.90;;;;;;5041882;28;20797;-88
2022/10/29 06:12:57;;;;;;;7.93;5.57;;;13.80;99.90;;;;;;5040639;28;20197;-89
2022/10/29 06:15:23;;;;;;;10.60;6.70;;;13.80;99.90;;;;;;5027035;28;20197;-88
2022/10/29 06:17:49;;;;;;;11.27;5.20;;;13.80;99.90;;;;;;5032564;28;20190;-89
2022/10/29 06:20:17;;;;;;;8.97;6.10;;;13.80;99.90;;;;;;5041130;28;20307;-87
2022/10/29 06:22:43;;;;;;;10.57;5.50;;;13.80;99.90;;;;;;5042929;28;20666;-89
2022/10/29 06:25:09;;;;;;;7.80;6.40;;;13.80;99.90;;;;;;5027048;28;20197;-89
2022/10/29 06:27:35;;;;;;;11.80;5.87;;;13.70;99.90;;;;;;5039142;28;20181;-88
2022/10/29 06:30:01;;;;;;;8.40;5.63;;;13.60;99.90;;;;;;5040866;28;20740;-87
2022/10/29 06:32:27;;;;;;;9.93;6.10;;;13.60;99.90;;;;;;5031848;28;20197;-87
2022/10/29 06:34:53;;;;;;;6.83;5.57;;;13.60;99.90;;;;;;5033199;28;20535;-87
2022/10/29 06:37:18;;;;;;;5.67;5.17;;;13.50;99.90;;;;;;5040505;28;20196;-89
2022/10/29 06:39:44;;;;;;;10.07;5.43;;;13.60;99.90;;;;;;5036827;28;20225;-88
2022/10/29 06:42:10;;;;;;;11.23;5.67;;;13.50;99.90;;;;;;5040012;28;20196;-90
2022/10/29 06:44:35;;;;;;;7.97;5.33;;;13.60;99.90;;;;;;5045868;28;20188;-88
2022/10/29 06:47:01;;;;;;;6.83;5.77;;;13.60;99.90;;;;;;5047281;28;20192;-89
2022/10/29 06:49:27;;;;;;;7.73;5.90;;;13.60;99.90;;;;;;5046253;28;20213;-89
2022/10/29 06:51:52;;;;;;;10.37;5.60;;;13.60;99.90;;;;;;5046144;28;20257;-89
2022/10/29 06:54:18;;;;;;;8.37;5.80;;;13.70;99.90;;;;;;5048026;28;20196;-88
2022/10/29 06:56:44;;;;;;;8.53;5.63;;;13.70;99.90;;;;;;5025350;28;20185;-88
2022/10/29 06:59:09;;;;;;;10.23;5.50;;;13.70;99.90;;;;;;5044820;28;20213;-89
2022/10/29 07:01:35;;;;;;;14.23;5.93;;;13.80;99.90;;;;;;5038380;28;20185;-89
2022/10/29 07:04:01;;;;;;;11.93;5.43;;;13.60;99.90;;;;;;5042059;28;20192;-88
2022/10/29 07:06:30;;;;;;;8.90;5.27;;;13.60;99.90;;;;;;5047600;28;20407;-89
2022/10/29 07:08:56;;;;;;;11.97;5.20;;;13.60;99.90;;;;;;5036183;28;20201;-88
2022/10/29 07:11:21;;;;;;;8.73;5.33;;;13.70;99.90;;;;;;5043026;28;20195;-88
2022/10/29 07:13:47;;;;;;;8.03;5.27;;;13.70;99.90;;;;;;5044677;28;20195;-87
2022/10/29 07:16:13;;;;;;;7.53;5.10;;;13.80;99.90;;;;;;5043258;28;20169;-89
2022/10/29 07:18:39;;;;;;;7.33;5.43;;;13.90;99.90;;;;;;5038864;28;20228;-88
2022/10/29 07:21:04;;;;;;;11.17;6.13;;;13.90;99.90;;;;;;5042753;28;20189;-89
2022/10/29 07:23:30;;;;;;;8.80;5.30;;;13.90;99.90;;;;;;5056446;28;20196;-89
2022/10/29 07:25:56;;;;;;;10.43;5.40;;;14.00;99.90;;;;;;5056202;28;20197;-89
2022/10/29 07:28:24;;;;;;;9.33;6.00;;;14.10;99.90;;;;;;5057699;28;20207;-87
2022/10/29 07:30:51;;;;;;;7.87;5.53;;;14.10;99.90;;;;;;5057217;28;20230;-88
2022/10/29 07:33:17;;;;;;;10.10;5.80;;;14.20;99.90;;;;;;5048174;28;20509;-88
2022/10/29 07:35:44;;;;;;;11.27;5.50;;;14.20;99.90;;;;;;5045558;28;20185;-88
2022/10/29 07:38:11;;;;;;;9.67;6.00;;;14.20;99.90;;;;;;5046329;28;20226;-88
2022/10/29 07:40:47;;;;;;;8.00;5.60;;;14.30;99.90;;;;;;5046497;28;20184;-88
2022/10/29 07:43:13;;;;;;;8.47;5.80;;;14.30;99.90;;;;;;5046096;28;20193;-86
2022/10/29 07:45:40;;;;;;;9.47;5.80;;;14.30;99.90;;;;;;5040290;28;20187;-88
2022/10/29 07:48:06;;;;;;;12.23;6.07;;;14.40;99.90;;;;;;5038984;28;20209;-88
2022/10/29 07:50:32;;;;;;;8.30;5.90;;;14.30;99.90;;;;;;5043266;28;20572;-88
2022/10/29 07:52:59;;;;;;;10.20;5.80;;;14.40;99.90;;;;;;5040353;28;20192;-89
2022/10/29 07:55:26;;;;;;;10.47;5.90;;;14.50;99.90;;;;;;5042909;28;20189;-88
2022/10/29 07:58:11;;;;;;;8.17;5.93;;;14.50;99.90;;;;;;5044339;28;20513;-88
2022/10/29 08:00:39;;;;;;;7.07;5.80;;;14.60;99.90;;;;;;5036155;28;20231;-88
2022/10/29 08:03:05;;;;;;;7.97;5.70;;;14.60;99.90;;;;;;5041744;28;20220;-89
2022/10/29 08:05:31;;;;;;;11.10;6.17;;;14.60;99.90;;;;;;5047076;28;20179;-87
2022/10/29 08:07:57;;;;;;;9.80;6.83;;;14.70;99.90;;;;;;5044346;28;20276;-87
2022/10/29 08:10:24;;;;;;;8.90;6.47;;;14.70;99.90;;;;;;5036309;28;20239;-88
2022/10/29 08:12:55;;;;;;;8.17;6.00;;;14.80;99.90;;;;;;5036392;28;20186;-89
2022/10/29 08:15:21;;;;;;;10.50;6.27;;;14.80;99.90;;;;;;5042617;28;20222;-88
2022/10/29 08:17:47;;;;;;;6.90;6.17;;;14.90;99.90;;;;;;5032008;28;20190;-87
2022/10/29 08:20:13;;;;;;;7.40;6.60;;;14.90;99.90;;;;;;5034473;28;20263;-87
2022/10/29 08:22:39;;;;;;;10.40;5.77;;;14.80;99.90;;;;;;5037790;28;20245;-87
2022/10/29 08:25:06;;;;;;;8.07;6.47;;;14.90;99.90;;;;;;5032692;28;20215;-88
2022/10/29 08:27:31;;;;;;;7.17;6.33;;;15.00;99.90;;;;;;5033524;28;20209;-88
2022/10/29 08:29:57;;;;;;;9.67;6.00;;;15.10;99.90;;;;;;5033909;28;20213;-88
2022/10/29 08:32:23;;;;;;;6.73;6.10;;;15.20;99.90;;;;;;5044668;28;20241;-88
2022/10/29 08:34:48;;;;;;;7.27;6.50;;;15.20;99.90;;;;;;5032333;28;20213;-87
2022/10/29 08:37:14;;;;;;;11.60;6.80;;;15.30;99.90;;;;;;5038438;28;20207;-87
2022/10/29 08:39:40;;;;;;;11.47;6.33;;;15.30;99.90;;;;;;5035733;28;20226;-86
2022/10/29 08:42:39;;;;;;;6.20;5.57;;;15.40;99.90;;;;;;5043569;28;20275;-88
2022/10/29 08:45:38;;;;;;;9.30;6.07;;;15.30;99.90;;;;;;5045288;28;20254;-87
2022/10/29 08:48:04;;;;;;;7.70;6.73;;;15.40;99.90;;;;;;5028164;28;20228;-87
2022/10/29 08:50:39;;;;;;;9.25;6.70;;;15.50;99.90;;;;;;5040808;28;20470;-88
2022/10/29 08:53:15;;;;;;;12.18;6.35;;;15.50;99.90;;;;;;5032497;28;20201;-87
2022/10/29 08:55:41;;;;;;;14.65;7.65;;;15.40;99.90;;;;;;5006594;28;20193;-88
2022/10/29 08:58:32;;;;;;;13.63;6.90;;;15.40;99.90;;;;;;5027874;28;20223;-88
2022/10/29 09:00:58;;;;;;;11.00;6.50;;;15.40;99.90;;;;;;5031676;28;20186;-87
2022/10/29 09:03:28;;;;;;;9.33;6.93;;;15.40;99.90;;;;;;5033578;28;20199;-87
2022/10/29 09:06:20;;;;;;;13.80;7.10;;;15.40;99.90;;;;;;5034820;28;20189;-87
2022/10/29 09:09:00;;;;;;;13.40;6.73;;;15.40;99.90;;;;;;5038913;28;20237;-88
2022/10/29 09:11:41;;;;;;;7.50;6.33;;;15.50;99.90;;;;;;5025511;28;20486;-87
2022/10/29 09:14:27;;;;;;;12.52;6.88;;;15.70;99.90;;;;;;5030597;28;20657;-88
2022/10/29 09:17:21;;;;;;;8.77;6.77;;;15.70;99.90;;;;;;5036779;28;20612;-87
2022/10/29 09:20:04;;;;;;;11.37;7.27;;;15.90;99.90;;;;;;5039243;28;20223;-87
2022/10/29 09:22:35;;;;;;;10.63;6.43;;;15.90;99.90;;;;;;5038948;28;20187;-87
2022/10/29 09:25:22;;;;;;;14.70;6.88;;;16.00;99.90;;;;;;5032346;28;20191;-88
2022/10/29 09:27:54;;;;;;;11.88;7.50;;;16.20;97.60;;;;;;5030615;28;20203;-87
2022/10/29 09:30:20;;;;;;;8.98;6.65;;;16.30;99.90;;;;;;5034267;28;20257;-87
2022/10/29 09:32:57;;;;;;;12.18;7.70;;;16.70;98.20;;;;;;5031308;28;20206;-88
2022/10/29 09:35:39;;;;;;;12.93;7.15;;;17.10;96.80;;;;;;5030552;28;20260;-88
2022/10/29 09:38:17;;;;;;;10.15;6.40;;;17.30;95.10;;;;;;5031876;28;20227;-87
2022/10/29 09:40:43;;;;;;;12.43;6.97;;;17.50;93.40;;;;;;5043153;28;20189;-87
2022/10/29 09:43:40;;;;;;;15.75;7.28;;;17.70;92.90;;;;;;5056028;28;20185;-87
2022/10/29 09:46:11;;;;;;;14.07;6.38;;;17.70;89.60;;;;;;5039683;28;20184;-87
2022/10/29 09:48:53;;;;;;;9.20;6.97;;;18.10;89.70;;;;;;5038412;28;20221;-87
2022/10/29 09:51:31;;;;;;;10.02;6.60;;;18.30;89.20;;;;;;5025746;28;20297;-87
2022/10/29 09:53:57;;;;;;;12.93;6.50;;;18.50;88.10;;;;;;5034528;28;20189;-87
2022/10/29 09:56:23;;;;;;;10.82;7.13;;;18.50;87.10;;;;;;5015823;28;20882;-87
2022/10/29 09:58:53;;;;;;;11.30;7.20;;;18.70;87.00;;;;;;5029971;28;20247;-87
2022/10/29 10:01:19;;;;;;;10.75;6.82;;;19.10;85.60;;;;;;5025176;28;20223;-87
2022/10/29 10:03:52;;;;;;;8.82;6.30;;;19.10;86.30;;;;;;5031708;28;20190;-87
2022/10/29 10:06:17;;;;;;;10.02;6.78;;;19.20;84.90;;;;;;5052954;28;20655;-87
2022/10/29 10:09:03;;;;;;;10.95;7.32;;;19.20;85.00;;;;;;5039415;28;20218;-87
2022/10/29 10:11:38;;;;;;;10.35;7.30;;;19.60;81.00;;;;;;5043129;28;20178;-87
2022/10/29 10:14:17;;;;;;;11.48;7.32;;;19.40;82.20;;;;;;5039622;28;20186;-87
2022/10/29 10:16:43;;;;;;;9.15;7.25;;;19.40;83.20;;;;;;5036871;28;20186;-87
2022/10/29 10:19:32;;;;;;;12.85;7.13;;;19.40;84.70;;;;;;5018289;28;20236;-87
2022/10/29 10:22:03;;;;;;;10.55;7.40;;;19.80;83.80;;;;;;5036777;28;20319;-88
2022/10/29 10:24:33;;;;;;;10.95;7.07;;;19.90;81.20;;;;;;5033555;28;20253;-87
2022/10/29 10:26:59;;;;;;;10.65;6.90;;;19.90;80.50;;;;;;5031288;28;20200;-87
2022/10/29 10:29:25;;;;;;;12.45;7.10;;;20.50;77.80;;;;;;5042718;28;20218;-87
2022/10/29 10:31:54;;;;;;;12.07;7.00;;;20.80;75.40;;;;;;5039317;28;20213;-87
2022/10/29 10:34:37;;;;;;;8.52;7.38;;;21.10;74.40;;;;;;5047041;28;20180;-87
2022/10/29 10:37:08;;;;;;;9.38;7.03;;;21.10;75.80;;;;;;5041405;28;20197;-87
2022/10/29 10:39:36;;;;;;;10.80;7.60;;;21.10;73.50;;;;;;5046359;28;20221;-87
2022/10/29 10:42:19;;;;;;;9.85;7.47;;;21.40;70.40;;;;;;5046371;28;20173;-87
2022/10/29 10:44:48;;;;;;;7.78;6.55;;;21.80;69.20;;;;;;5043423;28;20185;-87
2022/10/29 10:47:17;;;;;;;13.93;8.07;;;21.80;71.00;;;;;;5041111;28;20234;-86
2022/10/29 10:49:44;;;;;;;9.73;6.93;;;21.60;72.80;;;;;;5043895;28;20208;-87
2022/10/29 10:52:30;;;;;;;12.48;7.70;;;21.60;72.20;;;;;;5042181;28;20185;-87
2022/10/29 10:55:02;;;;;;;12.98;8.13;;;21.80;69.70;;;;;;5036016;28;20197;-88
2022/10/29 10:57:41;;;;;;;11.02;7.15;;;21.40;72.70;;;;;;5032237;28;20193;-88
2022/10/29 11:00:18;;;;;;;10.10;7.47;;;21.40;73.90;;;;;;5031016;28;20248;-88
2022/10/29 11:02:55;;;;;;;8.43;6.82;;;21.20;74.90;;;;;;5038679;28;20177;-88
2022/10/29 11:05:22;;;;;;;12.00;7.78;;;21.20;75.00;;;;;;5031187;28;20235;-87
2022/10/29 11:08:04;;;;;;;12.10;7.70;;;21.20;73.70;;;;;;5034668;28;20199;-86
2022/10/29 11:10:39;;;;;;;17.25;7.65;;;21.30;75.70;;;;;;5045557;28;20186;-87
2022/10/29 11:13:14;;;;;;;10.57;6.97;;;21.50;72.90;;;;;;5033236;28;20195;-87
2022/10/29 11:15:51;;;;;;;8.73;7.13;;;21.40;73.10;;;;;;5035869;28;20563;-87
2022/10/29 11:18:38;;;;;;;10.82;6.80;;;21.60;72.90;;;;;;5038560;28;20219;-88
2022/10/29 11:21:20;;;;;;;12.40;6.90;;;21.80;69.80;;;;;;5030898;28;20220;-86
2022/10/29 11:24:05;;;;;;;10.18;7.00;;;21.90;67.00;;;;;;5043300;28;20607;-87
2022/10/29 11:26:39;;;;;;;10.93;6.65;;;21.90;67.60;;;;;;5038623;28;20207;-87
2022/10/29 11:29:39;;;;;;;11.77;6.07;;;21.90;69.00;;;;;;5039275;28;20211;-87
2022/10/29 11:32:28;;;;;;;8.00;6.38;;;22.30;68.00;;;;;;5035809;28;20248;-88
2022/10/29 11:35:16;;;;;;;7.30;5.80;;;22.60;65.60;;;;;;5057036;28;20172;-87
2022/10/29 11:38:03;;;;;;;9.93;6.63;;;23.00;63.70;;;;;;5030172;28;20690;-87
2022/10/29 11:40:46;;;;;;;11.65;6.93;;;23.20;62.60;;;;;;5044695;28;20208;-88
2022/10/29 11:43:13;;;;;;;7.40;6.38;;;23.40;62.10;;;;;;5041998;28;20165;-89
2022/10/29 11:46:05;;;;;;;10.98;7.30;;;23.30;61.80;;;;;;5037487;28;20208;-87
2022/10/29 11:48:47;;;;;;;8.77;6.35;;;23.80;60.10;;;;;;5036455;28;20257;-88
2022/10/29 11:51:24;;;;;;;14.25;6.63;;;24.40;57.10;;;;;;5040550;28;20169;-87
2022/10/29 11:54:08;;;;;;;9.63;6.97;;;24.80;56.70;;;;;;5025114;28;20252;-87
2022/10/29 11:56:48;;;;;;;8.98;6.60;;;24.90;57.20;;;;;;5038440;28;20188;-87
2022/10/29 11:59:31;;;;;;;10.32;6.88;;;25.00;56.70;;;;;;5021133;28;20275;-87
2022/10/29 12:02:06;;;;;;;15.57;6.90;;;25.10;55.40;;;;;;5037004;28;20188;-88
2022/10/29 12:04:46;;;;;;;7.53;6.65;;;25.30;55.80;;;;;;5026412;28;20238;-87
2022/10/29 12:07:36;;;;;;;11.45;7.15;;;25.30;56.50;;;;;;5042635;28;20196;-88
2022/10/29 12:10:31;;;;;;;12.77;6.47;;;25.40;56.50;;;;;;5043462;28;20170;-88
2022/10/29 12:13:12;;;;;;;7.80;5.93;;;25.10;55.20;;;;;;5045034;28;20207;-88
2022/10/29 12:15:44;;;;;;;12.23;6.55;;;25.10;56.00;;;;;;5040809;28;20189;-88
2022/10/29 12:18:45;;;;;;;8.18;6.38;;;24.90;56.60;;;;;;5042604;28;20679;-88
2022/10/29 12:21:29;;;;;;;9.75;7.18;;;25.30;54.60;;;;;;5021122;28;20182;-88
2022/10/29 12:24:13;;;;;;;9.85;6.95;;;25.50;55.20;;;;;;5037059;28;20189;-88
2022/10/29 12:27:19;;;;;;;11.60;6.70;;;25.50;54.70;;;;;;5039487;28;20284;-89
2022/10/29 12:29:58;;;;;;;9.70;6.40;;;25.50;54.60;;;;;;5010734;28;20216;-87
2022/10/29 12:32:42;;;;;;;10.20;6.53;;;25.10;55.90;;;;;;5041689;28;20161;-88
2022/10/29 12:35:46;;;;;;;8.57;6.90;;;25.20;56.90;;;;;;5041268;28;20647;-88
2022/10/29 12:38:39;;;;;;;12.80;6.80;;;25.30;55.50;;;;;;5040143;28;20216;-88
2022/10/29 12:41:09;;;;;;;12.18;6.50;;;25.20;56.60;;;;;;5029718;28;20222;-88
2022/10/29 12:43:37;;;;;;;8.90;6.60;;;25.40;55.70;;;;;;5040157;28;20177;-88
2022/10/29 12:46:21;;;;;;;7.60;6.57;;;25.30;55.10;;;;;;5041907;28;20184;-88
2022/10/29 12:48:52;;;;;;;9.20;6.90;;;25.60;54.00;;;;;;5042611;28;20204;-88
2022/10/29 12:51:34;;;;;;;10.70;7.57;;;25.90;52.70;;;;;;5024391;28;20288;-87
2022/10/29 12:54:18;;;;;;;14.77;7.20;;;26.30;51.90;;;;;;5029787;28;20176;-87
2022/10/29 12:56:44;;;;;;;9.52;7.10;;;26.20;52.80;;;;;;5035064;28;20212;-88
2022/10/29 12:59:39;;;;;;;10.95;7.95;;;26.10;53.40;;;;;;5036951;28;20343;-88
2022/10/29 13:02:20;;;;;;;10.35;7.22;;;25.60;54.00;;;;;;5035938;28;20190;-88
2022/10/29 13:05:04;;;;;;;10.90;6.68;;;25.40;55.00;;;;;;5037363;28;20191;-88